createdAt,value
2019-03-08T00:00:43.145Z,990.79
2019-03-08T00:01:43.140Z,990.79
2019-03-08T00:02:43.135Z,990.81
2019-03-08T00:03:43.115Z,990.76
2019-03-08T00:04:43.104Z,990.72
2019-03-08T00:05:43.098Z,990.88
2019-03-08T00:06:43.088Z,990.84
2019-03-08T00:07:43.081Z,990.74
2019-03-08T00:08:43.089Z,990.83
2019-03-08T00:09:43.077Z,990.79
2019-03-08T00:10:43.055Z,991.01
2019-03-08T00:11:43.048Z,990.92
2019-03-08T00:12:43.038Z,990.93
2019-03-08T00:13:43.035Z,990.89
2019-03-08T00:14:43.022Z,990.95
2019-03-08T00:15:43.016Z,990.96
2019-03-08T00:16:43.006Z,991.00
2019-03-08T00:17:42.998Z,990.93
2019-03-08T00:18:42.990Z,990.94
2019-03-08T00:19:43.000Z,990.92
2019-03-08T00:20:42.971Z,990.85
2019-03-08T00:21:42.969Z,990.93
2019-03-08T00:22:42.962Z,991.00
2019-03-08T00:23:42.962Z,991.00
2019-03-08T00:24:42.936Z,991.02
2019-03-08T00:25:43.639Z,990.92
2019-03-08T00:26:42.929Z,991.01
2019-03-08T00:27:42.913Z,991.03
2019-03-08T00:28:42.918Z,991.06
2019-03-08T00:29:42.905Z,991.15
2019-03-08T00:30:42.888Z,990.86
2019-03-08T00:31:42.882Z,991.23
2019-03-08T00:32:42.874Z,991.15
2019-03-08T00:33:42.865Z,991.25
2019-03-08T00:34:42.864Z,991.19
2019-03-08T00:35:42.853Z,991.20
2019-03-08T00:36:42.849Z,991.14
2019-03-08T00:37:42.830Z,991.26
2019-03-08T00:38:42.820Z,991.31
2019-03-08T00:39:42.813Z,991.34
2019-03-08T00:40:42.802Z,991.30
2019-03-08T00:41:42.813Z,991.29
2019-03-08T00:42:42.786Z,991.38
2019-03-08T00:43:42.780Z,991.38
2019-03-08T00:44:42.769Z,991.56
2019-03-08T00:45:42.764Z,991.57
2019-03-08T00:46:42.766Z,991.38
2019-03-08T00:47:43.564Z,991.48
2019-03-08T00:48:42.746Z,991.53
2019-03-08T00:49:42.748Z,991.56
2019-03-08T00:50:42.726Z,991.51
2019-03-08T00:51:42.728Z,991.75
2019-03-08T00:52:42.706Z,991.63
2019-03-08T00:53:42.710Z,991.58
2019-03-08T00:54:42.688Z,991.56
2019-03-08T00:55:42.685Z,991.73
2019-03-08T00:56:42.687Z,991.67
2019-03-08T00:57:42.701Z,991.65
2019-03-08T00:58:42.669Z,991.66
2019-03-08T00:59:42.648Z,991.62
2019-03-08T01:00:42.637Z,991.74
2019-03-08T01:01:42.641Z,991.77
2019-03-08T01:02:42.622Z,991.65
2019-03-08T01:03:42.617Z,991.75
2019-03-08T01:04:42.607Z,991.78
2019-03-08T01:05:42.598Z,991.68
2019-03-08T01:06:42.591Z,991.74
2019-03-08T01:07:42.581Z,991.66
2019-03-08T01:08:42.587Z,991.71
2019-03-08T01:09:42.566Z,991.70
2019-03-08T01:10:42.555Z,991.62
2019-03-08T01:11:42.550Z,991.71
2019-03-08T01:12:42.541Z,991.70
2019-03-08T01:13:42.531Z,991.66
2019-03-08T01:14:42.520Z,991.63
2019-03-08T01:15:42.538Z,991.62
2019-03-08T01:16:42.505Z,991.82
2019-03-08T01:17:42.497Z,991.80
2019-03-08T01:18:42.488Z,991.80
2019-03-08T01:19:42.479Z,991.83
2019-03-08T01:20:42.482Z,991.75
2019-03-08T01:21:42.481Z,991.82
2019-03-08T01:22:42.453Z,991.60
2019-03-08T01:23:42.447Z,991.84
2019-03-08T01:24:42.435Z,991.92
2019-03-08T01:25:42.429Z,991.87
2019-03-08T01:26:42.435Z,991.98
2019-03-08T01:27:42.413Z,992.02
2019-03-08T01:28:42.402Z,991.98
2019-03-08T01:29:42.399Z,991.94
2019-03-08T01:30:42.390Z,991.98
2019-03-08T01:31:42.379Z,992.05
2019-03-08T01:32:42.387Z,992.07
2019-03-08T01:33:42.363Z,992.02
2019-03-08T01:34:42.353Z,991.98
2019-03-08T01:35:42.347Z,992.11
2019-03-08T01:36:42.337Z,992.08
2019-03-08T01:37:42.330Z,992.02
2019-03-08T01:38:42.335Z,991.93
2019-03-08T01:39:42.313Z,992.21
2019-03-08T01:40:42.321Z,992.13
2019-03-08T01:41:42.298Z,992.27
2019-03-08T01:42:43.351Z,992.21
2019-03-08T01:43:42.281Z,992.30
2019-03-08T01:44:42.271Z,992.25
2019-03-08T01:45:42.274Z,992.37
2019-03-08T01:46:42.254Z,992.42
2019-03-08T01:47:42.248Z,992.44
2019-03-08T01:48:42.241Z,992.52
2019-03-08T01:49:42.236Z,992.60
2019-03-08T01:50:42.223Z,992.55
2019-03-08T01:51:42.226Z,992.65
2019-03-08T01:52:42.223Z,992.68
2019-03-08T01:53:42.205Z,992.74
2019-03-08T01:54:42.191Z,993.00
2019-03-08T01:55:42.185Z,992.88
2019-03-08T01:56:42.943Z,993.01
2019-03-08T01:57:42.167Z,992.94
2019-03-08T01:58:42.164Z,992.91
2019-03-08T01:59:42.152Z,993.00
2019-03-08T02:00:42.141Z,992.95
2019-03-08T02:01:42.155Z,992.93
2019-03-08T02:02:42.136Z,993.19
2019-03-08T02:03:42.120Z,993.09
2019-03-08T02:04:42.110Z,993.07
2019-03-08T02:05:42.101Z,993.05
2019-03-08T02:06:42.095Z,993.14
2019-03-08T02:07:42.084Z,993.12
2019-03-08T02:08:42.078Z,993.16
2019-03-08T02:09:42.070Z,993.22
2019-03-08T02:10:42.081Z,993.10
2019-03-08T02:11:42.063Z,993.28
2019-03-08T02:12:42.208Z,993.22
2019-03-08T02:13:42.036Z,993.26
2019-03-08T02:14:42.029Z,993.24
2019-03-08T02:15:43.463Z,993.25
2019-03-08T02:16:42.022Z,993.20
2019-03-08T02:17:42.002Z,993.28
2019-03-08T02:18:42.009Z,993.35
2019-03-08T02:19:41.984Z,993.24
2019-03-08T02:20:41.979Z,993.27
2019-03-08T02:21:41.968Z,993.21
2019-03-08T02:22:41.963Z,993.31
2019-03-08T02:23:41.960Z,993.26
2019-03-08T02:24:41.945Z,993.38
2019-03-08T02:25:41.935Z,993.22
2019-03-08T02:26:41.941Z,993.19
2019-03-08T02:27:41.921Z,993.12
2019-03-08T02:28:41.913Z,993.21
2019-03-08T02:29:41.908Z,993.24
2019-03-08T02:30:41.898Z,993.26
2019-03-08T02:31:41.886Z,993.37
2019-03-08T02:32:41.879Z,993.18
2019-03-08T02:33:41.871Z,993.32
2019-03-08T02:34:41.862Z,993.29
2019-03-08T02:35:41.865Z,993.33
2019-03-08T02:36:41.846Z,993.31
2019-03-08T02:37:41.855Z,993.31
2019-03-08T02:38:41.863Z,993.28
2019-03-08T02:39:41.823Z,993.30
2019-03-08T02:40:41.814Z,993.26
2019-03-08T02:41:41.802Z,993.33
2019-03-08T02:42:41.798Z,993.32
2019-03-08T02:43:41.786Z,993.32
2019-03-08T02:44:41.791Z,993.29
2019-03-08T02:45:41.771Z,993.33
2019-03-08T02:46:41.765Z,993.27
2019-03-08T02:47:41.756Z,993.32
2019-03-08T02:48:41.747Z,993.34
2019-03-08T02:49:41.738Z,993.28
2019-03-08T02:50:41.736Z,993.29
2019-03-08T02:51:41.721Z,993.36
2019-03-08T02:52:41.717Z,993.31
2019-03-08T02:53:41.706Z,993.33
2019-03-08T02:54:41.700Z,993.30
2019-03-08T02:55:41.690Z,993.49
2019-03-08T02:56:41.684Z,993.44
2019-03-08T02:57:41.673Z,993.28
2019-03-08T02:58:41.669Z,993.36
2019-03-08T02:59:41.660Z,993.36
2019-03-08T03:00:41.663Z,993.39
2019-03-08T03:01:41.641Z,993.46
2019-03-08T03:02:41.635Z,993.42
2019-03-08T03:03:41.625Z,993.44
2019-03-08T03:04:41.622Z,993.50
2019-03-08T03:05:41.610Z,993.54
2019-03-08T03:06:41.604Z,993.51
2019-03-08T03:07:41.594Z,993.72
2019-03-08T03:08:41.593Z,993.49
2019-03-08T03:09:41.576Z,993.50
2019-03-08T03:10:41.572Z,993.53
2019-03-08T03:11:41.561Z,993.59
2019-03-08T03:12:41.556Z,993.60
2019-03-08T03:13:41.545Z,993.61
2019-03-08T03:14:41.540Z,993.63
2019-03-08T03:15:41.528Z,993.53
2019-03-08T03:16:41.526Z,993.76
2019-03-08T03:17:41.513Z,993.73
2019-03-08T03:18:41.511Z,993.77
2019-03-08T03:19:41.496Z,993.79
2019-03-08T03:20:41.491Z,993.79
2019-03-08T03:21:41.481Z,993.88
2019-03-08T03:22:41.476Z,993.84
2019-03-08T03:23:41.465Z,993.88
2019-03-08T03:24:41.462Z,994.01
2019-03-08T03:25:41.451Z,994.13
2019-03-08T03:26:41.447Z,994.04
2019-03-08T03:27:41.434Z,994.04
2019-03-08T03:28:41.429Z,993.92
2019-03-08T03:29:41.420Z,994.15
2019-03-08T03:30:41.418Z,994.11
2019-03-08T03:31:41.404Z,994.07
2019-03-08T03:32:41.399Z,994.15
2019-03-08T03:33:41.389Z,994.06
2019-03-08T03:34:41.384Z,994.19
2019-03-08T03:35:41.374Z,994.19
2019-03-08T03:36:41.372Z,994.24
2019-03-08T03:37:41.359Z,994.20
2019-03-08T03:38:41.353Z,994.29
2019-03-08T03:39:41.342Z,994.21
2019-03-08T03:40:41.337Z,994.29
2019-03-08T03:41:41.328Z,994.25
2019-03-08T03:42:41.322Z,994.25
2019-03-08T03:43:41.312Z,994.27
2019-03-08T03:44:41.306Z,994.30
2019-03-08T03:45:41.309Z,994.33
2019-03-08T03:46:41.292Z,994.34
2019-03-08T03:47:41.283Z,994.43
2019-03-08T03:48:41.278Z,994.49
2019-03-08T03:49:41.267Z,994.47
2019-03-08T03:50:41.262Z,994.51
2019-03-08T03:51:41.251Z,994.42
2019-03-08T03:52:41.247Z,994.58
2019-03-08T03:53:41.236Z,994.58
2019-03-08T03:54:41.232Z,994.51
2019-03-08T03:55:41.221Z,994.51
2019-03-08T03:56:41.216Z,994.65
2019-03-08T03:57:41.206Z,994.64
2019-03-08T03:58:41.203Z,994.71
2019-03-08T03:59:41.192Z,994.72
2019-03-08T04:00:41.186Z,994.73
2019-03-08T04:01:41.177Z,994.76
2019-03-08T04:02:41.171Z,994.77
2019-03-08T04:03:41.161Z,994.82
2019-03-08T04:04:41.156Z,994.91
2019-03-08T04:05:41.147Z,994.80
2019-03-08T04:06:41.141Z,994.88
2019-03-08T04:07:41.134Z,994.98
2019-03-08T04:08:41.126Z,994.94
2019-03-08T04:09:41.117Z,994.98
2019-03-08T04:10:41.112Z,994.94
2019-03-08T04:11:41.101Z,995.07
2019-03-08T04:12:41.098Z,995.01
2019-03-08T04:13:41.086Z,995.00
2019-03-08T04:14:41.083Z,995.12
2019-03-08T04:15:41.072Z,995.05
2019-03-08T04:16:41.066Z,995.12
2019-03-08T04:17:41.056Z,995.16
2019-03-08T04:18:41.054Z,995.17
2019-03-08T04:19:41.042Z,995.24
2019-03-08T04:20:41.037Z,995.20
2019-03-08T04:21:41.026Z,995.22
2019-03-08T04:22:41.022Z,995.28
2019-03-08T04:23:41.012Z,995.25
2019-03-08T04:24:41.007Z,995.22
2019-03-08T04:25:41.007Z,995.34
2019-03-08T04:26:40.992Z,995.33
2019-03-08T04:27:41.787Z,995.32
2019-03-08T04:28:40.977Z,995.26
2019-03-08T04:29:41.269Z,995.30
2019-03-08T04:30:40.972Z,995.50
2019-03-08T04:31:40.952Z,995.33
2019-03-08T04:32:40.947Z,995.38
2019-03-08T04:33:40.940Z,995.44
2019-03-08T04:34:40.933Z,995.36
2019-03-08T04:35:40.922Z,995.37
2019-03-08T04:36:40.917Z,995.50
2019-03-08T04:37:40.916Z,995.34
2019-03-08T04:38:40.920Z,995.44
2019-03-08T04:39:40.894Z,995.47
2019-03-08T04:40:40.889Z,995.43
2019-03-08T04:41:40.878Z,995.62
2019-03-08T04:42:40.876Z,995.62
2019-03-08T04:43:40.863Z,995.60
2019-03-08T04:44:40.858Z,995.59
2019-03-08T04:45:40.849Z,995.62
2019-03-08T04:46:40.843Z,995.72
2019-03-08T04:47:40.834Z,995.65
2019-03-08T04:48:40.831Z,995.73
2019-03-08T04:49:40.819Z,995.74
2019-03-08T04:50:40.814Z,995.79
2019-03-08T04:51:40.806Z,995.75
2019-03-08T04:52:40.801Z,995.89
2019-03-08T04:53:40.790Z,995.82
2019-03-08T04:54:40.788Z,995.94
2019-03-08T04:55:40.774Z,995.93
2019-03-08T04:56:40.770Z,995.89
2019-03-08T04:57:40.760Z,995.88
2019-03-08T04:58:40.756Z,995.87
2019-03-08T04:59:40.745Z,995.95
2019-03-08T05:00:40.739Z,995.96
2019-03-08T05:01:40.731Z,995.86
2019-03-08T05:02:40.726Z,995.95
2019-03-08T05:03:40.716Z,995.97
2019-03-08T05:04:40.710Z,995.96
2019-03-08T05:05:40.700Z,995.97
2019-03-08T05:06:40.695Z,996.01
2019-03-08T05:07:40.686Z,995.99
2019-03-08T05:08:40.685Z,996.07
2019-03-08T05:09:40.671Z,996.09
2019-03-08T05:10:40.667Z,996.14
2019-03-08T05:11:40.665Z,996.12
2019-03-08T05:12:40.652Z,996.12
2019-03-08T05:13:40.642Z,996.22
2019-03-08T05:14:40.638Z,996.21
2019-03-08T05:15:40.627Z,996.23
2019-03-08T05:16:40.623Z,996.21
2019-03-08T05:17:40.614Z,996.24
2019-03-08T05:18:40.607Z,996.36
2019-03-08T05:19:40.596Z,996.26
2019-03-08T05:20:40.592Z,996.31
2019-03-08T05:21:40.582Z,996.27
2019-03-08T05:22:40.577Z,996.30
2019-03-08T05:23:40.567Z,996.36
2019-03-08T05:24:40.562Z,996.38
2019-03-08T05:25:40.553Z,996.39
2019-03-08T05:26:40.548Z,996.39
2019-03-08T05:27:40.544Z,996.42
2019-03-08T05:28:40.533Z,996.45
2019-03-08T05:29:40.523Z,996.41
2019-03-08T05:30:40.520Z,996.44
2019-03-08T05:31:40.508Z,996.50
2019-03-08T05:32:40.519Z,996.47
2019-03-08T05:33:40.494Z,996.41
2019-03-08T05:34:40.489Z,996.48
2019-03-08T05:35:40.481Z,996.45
2019-03-08T05:36:40.474Z,996.55
2019-03-08T05:37:40.465Z,996.62
2019-03-08T05:38:40.461Z,996.55
2019-03-08T05:39:40.469Z,996.52
2019-03-08T05:40:40.445Z,996.65
2019-03-08T05:41:40.437Z,996.72
2019-03-08T05:42:40.439Z,996.60
2019-03-08T05:43:40.421Z,996.67
2019-03-08T05:44:40.417Z,996.63
2019-03-08T05:45:40.414Z,996.73
2019-03-08T05:46:40.402Z,996.79
2019-03-08T05:47:40.394Z,996.82
2019-03-08T05:48:40.388Z,996.87
2019-03-08T05:49:40.379Z,996.88
2019-03-08T05:50:40.374Z,996.94
2019-03-08T05:51:40.364Z,996.95
2019-03-08T05:52:40.359Z,996.97
2019-03-08T05:53:40.349Z,997.01
2019-03-08T05:54:40.344Z,997.05
2019-03-08T05:55:40.339Z,997.07
2019-03-08T05:56:40.330Z,997.05
2019-03-08T05:57:40.321Z,997.14
2019-03-08T05:58:40.322Z,997.25
2019-03-08T05:59:40.307Z,997.21
2019-03-08T06:00:40.301Z,997.26
2019-03-08T06:01:40.291Z,997.31
2019-03-08T06:02:40.322Z,997.27
2019-03-08T06:03:40.276Z,997.27
2019-03-08T06:04:40.521Z,997.28
2019-03-08T06:05:40.271Z,997.45
2019-03-08T06:06:40.257Z,997.53
2019-03-08T06:07:40.252Z,997.45
2019-03-08T06:08:40.243Z,997.53
2019-03-08T06:09:40.234Z,997.48
2019-03-08T06:10:40.227Z,997.53
2019-03-08T06:11:40.217Z,997.56
2019-03-08T06:12:40.212Z,997.54
2019-03-08T06:13:40.203Z,997.60
2019-03-08T06:14:40.212Z,997.68
2019-03-08T06:15:40.190Z,997.64
2019-03-08T06:16:40.183Z,997.68
2019-03-08T06:17:40.176Z,997.71
2019-03-08T06:18:40.166Z,997.82
2019-03-08T06:19:40.161Z,997.83
2019-03-08T06:20:40.152Z,997.90
2019-03-08T06:21:40.147Z,997.87
2019-03-08T06:22:40.137Z,997.91
2019-03-08T06:23:40.131Z,997.91
2019-03-08T06:24:40.122Z,997.94
2019-03-08T06:25:40.117Z,997.98
2019-03-08T06:26:40.108Z,998.00
2019-03-08T06:27:40.112Z,998.12
2019-03-08T06:28:40.135Z,998.16
2019-03-08T06:29:40.088Z,998.19
2019-03-08T06:30:40.078Z,998.24
2019-03-08T06:31:40.072Z,998.24
2019-03-08T06:32:40.063Z,998.34
2019-03-08T06:33:40.057Z,998.31
2019-03-08T06:34:40.055Z,998.30
2019-03-08T06:35:40.059Z,998.26
2019-03-08T06:36:40.032Z,998.36
2019-03-08T06:37:40.029Z,998.38
2019-03-08T06:38:40.018Z,998.44
2019-03-08T06:39:40.014Z,998.52
2019-03-08T06:40:40.003Z,998.57
2019-03-08T06:41:39.997Z,998.51
2019-03-08T06:42:39.991Z,998.54
2019-03-08T06:43:39.983Z,998.58
2019-03-08T06:44:39.973Z,998.64
2019-03-08T06:45:39.968Z,998.72
2019-03-08T06:46:39.959Z,998.70
2019-03-08T06:47:39.954Z,998.70
2019-03-08T06:48:39.943Z,998.78
2019-03-08T06:49:39.939Z,998.78
2019-03-08T06:50:39.939Z,998.81
2019-03-08T06:51:39.923Z,998.89
2019-03-08T06:52:39.913Z,998.92
2019-03-08T06:53:39.910Z,998.88
2019-03-08T06:54:39.902Z,998.93
2019-03-08T06:55:39.894Z,999.05
2019-03-08T06:56:39.884Z,998.95
2019-03-08T06:57:39.879Z,999.16
2019-03-08T06:58:39.870Z,999.09
2019-03-08T06:59:39.864Z,999.22
2019-03-08T07:00:39.858Z,999.19
2019-03-08T07:01:39.858Z,999.24
2019-03-08T07:02:39.844Z,999.25
2019-03-08T07:03:39.836Z,999.27
2019-03-08T07:04:39.827Z,999.28
2019-03-08T07:05:39.820Z,999.31
2019-03-08T07:06:39.813Z,999.41
2019-03-08T07:07:39.807Z,999.37
2019-03-08T07:08:39.795Z,999.43
2019-03-08T07:09:39.791Z,999.52
2019-03-08T07:10:39.781Z,999.50
2019-03-08T07:11:39.775Z,999.53
2019-03-08T07:12:39.767Z,999.50
2019-03-08T07:13:39.762Z,999.55
2019-03-08T07:14:39.752Z,999.57
2019-03-08T07:15:39.746Z,999.58
2019-03-08T07:16:39.740Z,999.64
2019-03-08T07:17:39.733Z,999.72
2019-03-08T07:18:39.723Z,999.71
2019-03-08T07:19:41.015Z,999.75
2019-03-08T07:20:39.709Z,999.78
2019-03-08T07:21:39.704Z,999.82
2019-03-08T07:22:39.693Z,999.80
2019-03-08T07:23:39.688Z,999.85
2019-03-08T07:24:39.679Z,999.89
2019-03-08T07:25:39.674Z,999.97
2019-03-08T07:26:39.665Z,999.99
2019-03-08T07:27:39.659Z,1000.04
2019-03-08T07:28:39.649Z,1000.04
2019-03-08T07:29:39.645Z,1000.11
2019-03-08T07:30:39.636Z,1000.07
2019-03-08T07:31:39.631Z,1000.16
2019-03-08T07:32:39.638Z,1000.24
2019-03-08T07:33:39.618Z,1000.21
2019-03-08T07:34:39.608Z,1000.22
2019-03-08T07:35:39.602Z,1000.25
2019-03-08T07:36:39.592Z,1000.35
2019-03-08T07:37:40.306Z,1000.41
2019-03-08T07:38:39.579Z,1000.39
2019-03-08T07:39:39.574Z,1000.39
2019-03-08T07:40:39.563Z,1000.48
2019-03-08T07:41:39.560Z,1000.52
2019-03-08T07:42:39.551Z,1000.59
2019-03-08T07:43:39.545Z,1000.64
2019-03-08T07:44:39.536Z,1000.71
2019-03-08T07:45:39.531Z,1000.72
2019-03-08T07:46:39.522Z,1000.61
2019-03-08T07:47:39.517Z,1000.68
2019-03-08T07:48:39.508Z,1000.78
2019-03-08T07:49:39.505Z,1000.85
2019-03-08T07:50:39.494Z,1000.83
2019-03-08T07:51:39.489Z,1000.77
2019-03-08T07:52:39.479Z,1000.81
2019-03-08T07:53:39.477Z,1000.82
2019-03-08T07:54:39.480Z,1000.83
2019-03-08T07:55:39.460Z,1000.89
2019-03-08T07:56:39.451Z,1000.88
2019-03-08T07:57:39.447Z,1000.90
2019-03-08T07:58:39.438Z,1000.93
2019-03-08T07:59:39.432Z,1000.97
2019-03-08T08:00:39.424Z,1000.94
2019-03-08T08:01:39.419Z,1001.04
2019-03-08T08:02:39.411Z,1001.00
2019-03-08T08:03:39.406Z,1001.10
2019-03-08T08:04:39.397Z,1001.14
2019-03-08T08:05:39.392Z,1001.17
2019-03-08T08:06:39.387Z,1001.19
2019-03-08T08:07:39.378Z,1001.25
2019-03-08T08:08:39.369Z,1001.29
2019-03-08T08:09:39.365Z,1001.38
2019-03-08T08:10:39.357Z,1001.30
2019-03-08T08:11:39.355Z,1001.39
2019-03-08T08:12:39.343Z,1001.42
2019-03-08T08:13:39.345Z,1001.45
2019-03-08T08:14:40.010Z,1001.43
2019-03-08T08:15:39.326Z,1001.53
2019-03-08T08:16:39.321Z,1001.53
2019-03-08T08:17:39.313Z,1001.52
2019-03-08T08:18:39.308Z,1001.51
2019-03-08T08:19:39.299Z,1001.54
2019-03-08T08:20:39.294Z,1001.46
2019-03-08T08:21:39.313Z,1001.52
2019-03-08T08:22:39.323Z,1001.54
2019-03-08T08:23:39.285Z,1001.58
2019-03-08T08:24:39.266Z,1001.56
2019-03-08T08:25:39.261Z,1001.61
2019-03-08T08:26:39.252Z,1001.60
2019-03-08T08:27:39.246Z,1001.65
2019-03-08T08:28:39.242Z,1001.67
2019-03-08T08:29:39.245Z,1001.73
2019-03-08T08:30:39.226Z,1001.73
2019-03-08T08:31:39.220Z,1001.72
2019-03-08T08:32:39.213Z,1001.84
2019-03-08T08:33:39.208Z,1001.82
2019-03-08T08:34:39.199Z,1001.76
2019-03-08T08:35:39.198Z,1001.83
2019-03-08T08:36:39.189Z,1001.93
2019-03-08T08:37:39.193Z,1001.98
2019-03-08T08:38:39.190Z,1001.94
2019-03-08T08:39:40.953Z,1002.01
2019-03-08T08:40:39.160Z,1002.07
2019-03-08T08:41:39.159Z,1002.08
2019-03-08T08:42:39.148Z,1001.97
2019-03-08T08:43:39.143Z,1002.09
2019-03-08T08:44:39.134Z,1002.14
2019-03-08T08:45:39.134Z,1002.13
2019-03-08T08:46:39.129Z,1002.12
2019-03-08T08:47:39.118Z,1002.14
2019-03-08T08:48:39.110Z,1002.13
2019-03-08T08:49:39.106Z,1002.16
2019-03-08T08:50:39.098Z,1002.20
2019-03-08T08:51:39.093Z,1002.26
2019-03-08T08:52:39.085Z,1002.30
2019-03-08T08:53:39.082Z,1002.17
2019-03-08T08:54:39.073Z,1002.32
2019-03-08T08:55:39.069Z,1002.36
2019-03-08T08:56:39.060Z,1002.40
2019-03-08T08:57:39.057Z,1002.48
2019-03-08T08:58:39.053Z,1002.45
2019-03-08T08:59:39.045Z,1002.51
2019-03-08T09:00:39.036Z,1002.53
2019-03-08T09:01:39.037Z,1002.56
2019-03-08T09:02:39.058Z,1002.49
2019-03-08T09:03:39.020Z,1002.53
2019-03-08T09:04:39.015Z,1002.59
2019-03-08T09:05:39.010Z,1002.63
2019-03-08T09:06:39.008Z,1002.66
2019-03-08T09:07:39.000Z,1002.70
2019-03-08T09:08:38.991Z,1002.73
2019-03-08T09:09:38.986Z,1002.80
2019-03-08T09:10:38.977Z,1002.80
2019-03-08T09:11:45.794Z,1002.80
2019-03-08T09:12:38.965Z,1002.90
2019-03-08T09:13:38.962Z,1002.88
2019-03-08T09:14:38.953Z,1002.93
2019-03-08T09:15:38.951Z,1002.95
2019-03-08T09:16:38.943Z,1002.99
2019-03-08T09:17:38.941Z,1003.03
2019-03-08T09:18:38.990Z,1002.99
2019-03-08T09:19:38.926Z,1002.94
2019-03-08T09:20:38.918Z,1002.92
2019-03-08T09:21:38.913Z,1002.96
2019-03-08T09:22:38.905Z,1003.05
2019-03-08T09:23:38.901Z,1003.13
2019-03-08T09:24:38.892Z,1003.09
2019-03-08T09:25:38.896Z,1003.13
2019-03-08T09:26:38.881Z,1003.18
2019-03-08T09:27:38.875Z,1003.05
2019-03-08T09:28:38.868Z,1003.13
2019-03-08T09:29:41.497Z,1003.05
2019-03-08T09:30:38.855Z,1003.13
2019-03-08T09:31:38.851Z,1003.07
2019-03-08T09:32:38.844Z,1003.10
2019-03-08T09:33:38.845Z,1003.15
2019-03-08T09:34:38.833Z,1003.12
2019-03-08T09:35:38.825Z,1003.13
2019-03-08T09:36:38.817Z,1003.11
2019-03-08T09:37:38.814Z,1003.15
2019-03-08T09:38:38.807Z,1003.18
2019-03-08T09:39:38.801Z,1003.11
2019-03-08T09:40:38.795Z,1003.22
2019-03-08T09:41:38.788Z,1003.23
2019-03-08T09:42:38.785Z,1003.25
2019-03-08T09:43:38.798Z,1003.32
2019-03-08T09:44:38.769Z,1003.31
2019-03-08T09:45:38.764Z,1003.37
2019-03-08T09:46:38.755Z,1003.41
2019-03-08T09:47:38.751Z,1003.40
2019-03-08T09:48:38.970Z,1003.42
2019-03-08T09:49:38.739Z,1003.39
2019-03-08T09:50:38.736Z,1003.40
2019-03-08T09:51:38.726Z,1003.50
2019-03-08T09:52:38.719Z,1003.44
2019-03-08T09:53:38.715Z,1003.55
2019-03-08T09:54:38.707Z,1003.44
2019-03-08T09:55:38.704Z,1003.51
2019-03-08T09:56:38.696Z,1003.52
2019-03-08T09:57:38.691Z,1003.54
2019-03-08T09:58:38.683Z,1003.54
2019-03-08T09:59:38.679Z,1003.58
2019-03-08T10:00:38.675Z,1003.64
2019-03-08T10:01:38.670Z,1003.54
2019-03-08T10:02:38.660Z,1003.62
2019-03-08T10:03:38.656Z,1003.59
2019-03-08T10:04:38.669Z,1003.65
2019-03-08T10:05:38.647Z,1003.72
2019-03-08T10:06:38.839Z,1003.62
2019-03-08T10:07:38.632Z,1003.65
2019-03-08T10:08:38.625Z,1003.65
2019-03-08T10:09:38.622Z,1003.68
2019-03-08T10:10:38.714Z,1003.67
2019-03-08T10:11:38.609Z,1003.64
2019-03-08T10:12:38.602Z,1003.65
2019-03-08T10:13:38.603Z,1003.60
2019-03-08T10:14:38.591Z,1003.59
2019-03-08T10:15:38.587Z,1003.58
2019-03-08T10:16:38.880Z,1003.69
2019-03-08T10:17:38.578Z,1003.73
2019-03-08T10:18:40.161Z,1003.74
2019-03-08T10:19:38.566Z,1003.70
2019-03-08T10:20:38.559Z,1003.76
2019-03-08T10:21:38.556Z,1003.74
2019-03-08T10:22:38.551Z,1003.76
2019-03-08T10:23:38.545Z,1003.83
2019-03-08T10:24:38.538Z,1003.89
2019-03-08T10:25:38.545Z,1003.87
2019-03-08T10:26:38.528Z,1003.91
2019-03-08T10:27:38.564Z,1004.00
2019-03-08T10:28:38.520Z,1003.96
2019-03-08T10:29:38.515Z,1004.04
2019-03-08T10:30:38.516Z,1004.02
2019-03-08T10:31:38.504Z,1003.99
2019-03-08T10:32:38.497Z,1004.05
2019-03-08T10:33:46.296Z,1003.96
2019-03-08T10:34:38.491Z,1004.04
2019-03-08T10:35:38.481Z,1004.03
2019-03-08T10:36:38.479Z,1004.14
2019-03-08T10:37:38.472Z,1004.16
2019-03-08T10:38:38.468Z,1004.20
2019-03-08T10:39:38.461Z,1004.24
2019-03-08T10:40:38.458Z,1004.28
2019-03-08T10:41:38.452Z,1004.27
2019-03-08T10:42:38.448Z,1004.18
2019-03-08T10:43:38.441Z,1004.23
2019-03-08T10:44:38.439Z,1004.23
2019-03-08T10:45:38.432Z,1004.24
2019-03-08T10:46:38.427Z,1004.28
2019-03-08T10:47:38.420Z,1004.26
2019-03-08T10:48:38.418Z,1004.28
2019-03-08T10:49:38.410Z,1004.35
2019-03-08T10:50:38.424Z,1004.34
2019-03-08T10:51:38.406Z,1004.37
2019-03-08T10:52:38.408Z,1004.37
2019-03-08T10:53:38.411Z,1004.36
2019-03-08T10:54:38.388Z,1004.39
2019-03-08T10:55:38.379Z,1004.47
2019-03-08T10:56:38.378Z,1004.46
2019-03-08T10:57:38.369Z,1004.53
2019-03-08T10:58:38.370Z,1004.45
2019-03-08T10:59:38.360Z,1004.40
2019-03-08T11:00:38.357Z,1004.48
2019-03-08T11:01:38.352Z,1004.47
2019-03-08T11:02:38.356Z,1004.56
2019-03-08T11:03:38.357Z,1004.55
2019-03-08T11:04:38.338Z,1004.55
2019-03-08T11:05:38.331Z,1004.67
2019-03-08T11:06:38.328Z,1004.69
2019-03-08T11:07:38.324Z,1004.69
2019-03-08T11:08:38.318Z,1004.77
2019-03-08T11:09:38.316Z,1004.83
2019-03-08T11:10:38.309Z,1004.78
2019-03-08T11:11:38.304Z,1004.74
2019-03-08T11:12:38.300Z,1004.91
2019-03-08T11:13:43.153Z,1004.83
2019-03-08T11:14:38.291Z,1004.82
2019-03-08T11:15:38.283Z,1004.86
2019-03-08T11:16:38.284Z,1004.88
2019-03-08T11:17:38.275Z,1004.84
2019-03-08T11:18:38.274Z,1004.81
2019-03-08T11:19:38.266Z,1004.82
2019-03-08T11:20:38.264Z,1004.87
2019-03-08T11:21:38.258Z,1004.87
2019-03-08T11:22:38.256Z,1004.90
2019-03-08T11:23:38.248Z,1004.88
2019-03-08T11:24:38.247Z,1004.89
2019-03-08T11:25:38.240Z,1004.90
2019-03-08T11:26:38.239Z,1004.83
2019-03-08T11:27:38.233Z,1004.83
2019-03-08T11:28:38.233Z,1004.86
2019-03-08T11:29:38.224Z,1004.79
2019-03-08T11:30:38.222Z,1004.81
2019-03-08T11:31:38.215Z,1004.91
2019-03-08T11:32:38.213Z,1004.90
2019-03-08T11:33:38.208Z,1005.00
2019-03-08T11:34:38.206Z,1004.93
2019-03-08T11:35:38.198Z,1004.94
2019-03-08T11:36:38.198Z,1004.99
2019-03-08T11:37:38.192Z,1005.01
2019-03-08T11:38:38.191Z,1004.99
2019-03-08T11:39:38.184Z,1004.97
2019-03-08T11:40:38.183Z,1005.03
2019-03-08T11:41:38.176Z,1005.03
2019-03-08T11:42:38.174Z,1005.04
2019-03-08T11:43:38.168Z,1005.01
2019-03-08T11:44:38.169Z,1005.12
2019-03-08T11:45:38.161Z,1005.03
2019-03-08T11:46:38.159Z,1005.08
2019-03-08T11:47:38.152Z,1005.16
2019-03-08T11:48:38.174Z,1005.14
2019-03-08T11:49:38.146Z,1005.15
2019-03-08T11:50:38.144Z,1005.22
2019-03-08T11:51:38.137Z,1005.26
2019-03-08T11:52:38.137Z,1005.29
2019-03-08T11:53:38.130Z,1005.34
2019-03-08T11:54:40.972Z,1005.55
2019-03-08T11:55:38.135Z,1005.55
2019-03-08T11:56:38.123Z,1005.56
2019-03-08T11:57:38.114Z,1005.69
2019-03-08T11:58:38.112Z,1005.63
2019-03-08T11:59:38.105Z,1005.77
2019-03-08T12:00:38.104Z,1005.70
2019-03-08T12:01:38.101Z,1005.60
2019-03-08T12:02:38.228Z,1005.69
2019-03-08T12:03:38.097Z,1005.68
2019-03-08T12:04:38.085Z,1005.69
2019-03-08T12:05:38.079Z,1005.71
2019-03-08T12:14:13.597Z,1005.89
2019-03-08T12:15:14.519Z,1005.88
2019-03-08T12:16:13.575Z,1005.88
2019-03-08T12:17:13.565Z,1005.91
2019-03-08T12:18:13.558Z,1005.92
2019-03-08T12:19:13.571Z,1005.90
2019-03-08T12:20:13.548Z,1005.92
2019-03-08T12:21:13.542Z,1005.90
2019-03-08T12:22:13.552Z,1005.92
2019-03-08T12:23:13.539Z,1005.92
2019-03-08T12:24:13.532Z,1005.92
2019-03-08T12:25:13.537Z,1005.94
2019-03-08T12:26:13.513Z,1005.95
2019-03-08T12:27:13.515Z,1005.95